Time;durP1;ratioP1;P1;durP2;ratioP2;P2;SDS_P1;SDS_P2;PMS_P1;PMS_P2;Temp;Humidity;BMP_temperature;BMP_pressure;BME280_temperature;BME280_humidity;BME280_pressure;Samples;Min_cycle;Max_cycle;Signal;HPM_P1;HPM_P2
2023/07/24 06:53:10;;;;;;;13.38;7.47;;;21.60;89.30;;;;;;5767580;23;20070;-70
2023/07/24 06:55:35;;;;;;;14.90;7.57;;;21.70;89.10;;;;;;4981524;28;20050;-71
2023/07/24 06:58:01;;;;;;;12.23;7.18;;;21.70;89.30;;;;;;4984570;28;20330;-69
2023/07/24 07:00:27;;;;;;;16.73;7.65;;;21.60;89.00;;;;;;4984986;28;20086;-69
2023/07/24 07:02:52;;;;;;;18.35;7.78;;;21.50;89.90;;;;;;4985209;28;20351;-70
2023/07/24 07:05:18;;;;;;;17.25;7.72;;;21.50;90.00;;;;;;4985488;28;20078;-70
2023/07/24 07:07:44;;;;;;;15.55;7.97;;;21.50;90.10;;;;;;4984630;28;20094;-70
2023/07/24 07:10:10;;;;;;;15.15;7.53;;;21.50;90.20;;;;;;4985489;28;20049;-70
2023/07/24 07:12:36;;;;;;;14.80;7.85;;;21.50;90.10;;;;;;4968106;28;20101;-71
2023/07/24 07:15:01;;;;;;;14.68;8.07;;;21.70;89.80;;;;;;4984830;28;20274;-71
2023/07/24 07:17:27;;;;;;;14.85;7.43;;;21.80;89.80;;;;;;4985060;28;20042;-71
2023/07/24 07:20:06;;;;;;;14.43;7.63;;;21.80;89.30;;;;;;4984838;28;20085;-70
2023/07/24 07:22:31;;;;;;;13.90;7.13;;;21.80;89.30;;;;;;4985029;28;20276;-71
2023/07/24 07:24:57;;;;;;;12.23;7.22;;;21.80;89.10;;;;;;4967713;28;20038;-71
2023/07/24 07:27:23;;;;;;;13.93;6.60;;;21.80;89.10;;;;;;4985263;28;20073;-71
2023/07/24 07:29:48;;;;;;;12.35;6.80;;;21.90;89.10;;;;;;4984295;28;20136;-72
2023/07/24 07:32:14;;;;;;;16.52;7.68;;;21.90;89.00;;;;;;4985107;28;20248;-70
2023/07/24 07:34:40;;;;;;;12.70;6.55;;;21.90;89.10;;;;;;4985196;28;20027;-71
2023/07/24 07:37:06;;;;;;;12.57;7.10;;;21.90;89.10;;;;;;4984532;28;20097;-70
2023/07/24 07:39:32;;;;;;;13.18;6.97;;;21.90;89.20;;;;;;4984764;28;20054;-72
2023/07/24 07:41:58;;;;;;;11.65;6.65;;;21.90;89.20;;;;;;4984615;28;20035;-71
2023/07/24 07:44:24;;;;;;;11.75;6.20;;;22.00;88.50;;;;;;4985000;28;20026;-72
2023/07/24 07:46:49;;;;;;;11.45;7.00;;;22.10;87.90;;;;;;4984030;28;20022;-71
2023/07/24 07:49:15;;;;;;;11.43;6.80;;;22.30;87.20;;;;;;4984314;28;20229;-69
2023/07/24 07:51:41;;;;;;;12.48;6.47;;;22.40;86.70;;;;;;4967236;28;20142;-71
2023/07/24 07:54:06;;;;;;;9.80;6.28;;;22.40;86.70;;;;;;4972773;28;20050;-72
2023/07/24 07:56:32;;;;;;;10.20;6.35;;;22.50;86.70;;;;;;4964588;28;20039;-71
2023/07/24 07:58:58;;;;;;;14.05;6.82;;;22.60;86.30;;;;;;4964874;28;20067;-71
2023/07/24 08:01:23;;;;;;;9.15;5.72;;;22.60;86.90;;;;;;4955419;29;20032;-72
2023/07/24 08:03:49;;;;;;;9.90;6.22;;;22.60;87.00;;;;;;4945071;29;20083;-71
2023/07/24 08:06:15;;;;;;;12.02;6.75;;;22.60;87.50;;;;;;4944462;29;20047;-72
2023/07/24 08:08:40;;;;;;;11.38;6.10;;;22.60;87.50;;;;;;4945833;29;20039;-70
2023/07/24 08:11:07;;;;;;;11.82;5.97;;;22.60;87.90;;;;;;4961568;29;20023;-71
2023/07/24 08:13:33;;;;;;;11.55;6.72;;;22.50;88.90;;;;;;4964737;28;20388;-72
2023/07/24 08:15:59;;;;;;;12.07;6.82;;;22.50;89.00;;;;;;4964626;28;20035;-71
2023/07/24 08:18:28;;;;;;;15.52;7.20;;;22.40;90.20;;;;;;4965154;28;20043;-72
2023/07/24 08:20:56;;;;;;;14.20;7.82;;;22.40;91.60;;;;;;4964698;29;20185;-71
2023/07/24 08:23:22;;;;;;;13.35;6.45;;;22.20;91.70;;;;;;4964429;29;20054;-72
2023/07/24 08:25:54;;;;;;;12.02;6.75;;;22.20;91.40;;;;;;4964237;29;20098;-71
2023/07/24 08:28:21;;;;;;;13.75;7.20;;;22.10;92.00;;;;;;4964698;29;20046;-71
2023/07/24 08:30:55;;;;;;;18.27;7.40;;;22.00;92.70;;;;;;4964010;29;20093;-71
2023/07/24 08:33:21;;;;;;;14.13;6.65;;;21.90;94.00;;;;;;4964902;28;20035;-71
2023/07/24 08:35:46;;;;;;;14.50;7.07;;;21.90;93.40;;;;;;4963885;28;20035;-72
2023/07/24 08:38:12;;;;;;;12.77;6.78;;;21.70;94.40;;;;;;4961807;28;20055;-73
2023/07/24 08:40:39;;;;;;;12.50;7.18;;;21.60;94.20;;;;;;4964921;29;20066;-72
2023/07/24 08:43:05;;;;;;;12.15;6.88;;;21.60;95.20;;;;;;4963877;29;20039;-72
2023/07/24 08:45:31;;;;;;;14.50;7.55;;;21.70;94.60;;;;;;4964608;28;20046;-71
2023/07/24 08:47:57;;;;;;;12.25;7.20;;;21.80;95.50;;;;;;4963656;28;20031;-71
2023/07/24 08:50:24;;;;;;;10.68;6.82;;;21.90;96.00;;;;;;4964669;28;20035;-71
2023/07/24 08:52:51;;;;;;;12.45;6.57;;;21.90;96.10;;;;;;4963864;28;20050;-73
2023/07/24 08:55:16;;;;;;;11.82;6.30;;;21.80;97.00;;;;;;4964373;29;20042;-71
2023/07/24 08:57:42;;;;;;;10.32;6.30;;;21.70;96.80;;;;;;4964174;29;20134;-72
2023/07/24 09:00:08;;;;;;;11.85;6.15;;;21.80;96.50;;;;;;4963575;28;20051;-73
2023/07/24 09:02:35;;;;;;;12.35;6.88;;;22.00;96.60;;;;;;4964171;29;20043;-71
2023/07/24 09:05:02;;;;;;;10.25;6.35;;;22.10;95.90;;;;;;4963127;29;20099;-73
2023/07/24 09:07:29;;;;;;;13.73;6.25;;;22.30;95.70;;;;;;4965939;28;20042;-71
2023/07/24 09:09:54;;;;;;;11.82;6.57;;;22.60;96.00;;;;;;4967939;28;20035;-71
2023/07/24 09:12:23;;;;;;;10.20;5.78;;;22.80;95.60;;;;;;4968206;29;20039;-70
2023/07/24 09:14:49;;;;;;;14.43;6.38;;;23.00;95.40;;;;;;4967959;28;20057;-70
2023/07/24 09:17:14;;;;;;;9.50;5.43;;;22.90;93.80;;;;;;4966917;29;20046;-71
2023/07/24 09:19:40;;;;;;;8.10;5.03;;;23.10;93.30;;;;;;4968187;29;20086;-71
2023/07/24 09:22:14;;;;;;;18.75;6.50;;;23.00;93.20;;;;;;4967602;29;20100;-71
2023/07/24 09:24:58;;;;;;;41.17;9.00;;;23.00;93.60;;;;;;4968317;29;20035;-72
2023/07/24 09:27:28;;;;;;;163.65;26.63;;;23.40;93.60;;;;;;4967959;28;20225;-72
2023/07/24 09:29:55;;;;;;;41.55;9.88;;;23.60;93.80;;;;;;4968012;28;20043;-71
2023/07/24 09:32:21;;;;;;;16.92;6.68;;;24.00;93.80;;;;;;4968214;28;20026;-71
2023/07/24 09:34:47;;;;;;;8.23;5.05;;;24.10;92.70;;;;;;4967650;29;20043;-71
2023/07/24 09:37:24;;;;;;;12.63;5.50;;;24.00;91.10;;;;;;4968182;28;20090;-71
2023/07/24 09:39:49;;;;;;;9.25;4.50;;;23.90;92.20;;;;;;4967386;28;20046;-73
2023/07/24 09:42:15;;;;;;;10.18;5.70;;;23.90;91.90;;;;;;4967995;29;20031;-72
2023/07/24 09:44:41;;;;;;;21.42;5.40;;;23.90;92.50;;;;;;4966776;29;20047;-73
2023/07/24 09:47:07;;;;;;;28.08;7.03;;;23.80;91.40;;;;;;4965809;28;20035;-72
2023/07/24 09:49:33;;;;;;;46.80;8.63;;;23.70;91.60;;;;;;4966417;29;20336;-71
2023/07/24 09:52:04;;;;;;;8.07;4.57;;;23.60;91.60;;;;;;4966939;29;20248;-70
2023/07/24 09:54:45;;;;;;;11.70;5.30;;;23.50;92.20;;;;;;4967159;28;20086;-71
2023/07/24 09:57:13;;;;;;;14.05;4.93;;;23.30;92.80;;;;;;4965820;29;20058;-71
2023/07/24 09:59:46;;;;;;;13.57;5.63;;;23.10;93.10;;;;;;4967590;29;20019;-70
2023/07/24 10:02:21;;;;;;;9.85;5.35;;;22.90;93.90;;;;;;4967053;28;20047;-73
2023/07/24 10:04:50;;;;;;;8.35;5.40;;;22.80;94.20;;;;;;4967401;28;20039;-71
2023/07/24 10:07:25;;;;;;;10.55;4.82;;;22.60;94.70;;;;;;4967394;29;20050;-71
2023/07/24 10:09:54;;;;;;;8.45;5.15;;;22.50;94.80;;;;;;4966537;28;20102;-71
2023/07/24 10:12:27;;;;;;;7.43;4.70;;;22.40;95.20;;;;;;4967107;28;20038;-70
2023/07/24 10:15:01;;;;;;;7.60;4.85;;;22.20;95.20;;;;;;4981261;28;20122;-71
2023/07/24 10:17:49;;;;;;;31.27;7.65;;;22.30;95.50;;;;;;4966624;28;20104;-71
2023/07/24 10:20:52;;;;;;;14.25;5.90;;;22.40;95.50;;;;;;4967107;28;20225;-72
2023/07/24 10:23:25;;;;;;;18.17;5.88;;;22.30;95.90;;;;;;4959881;29;20035;-73
2023/07/24 10:25:54;;;;;;;15.30;5.80;;;22.30;95.90;;;;;;4965063;29;20031;-72
2023/07/24 10:28:38;;;;;;;9.77;5.18;;;22.30;95.90;;;;;;4965973;29;20058;-72
2023/07/24 10:31:26;;;;;;;17.10;11.73;;;22.10;96.70;;;;;;4960402;29;20047;-71
2023/07/24 10:33:52;;;;;;;11.23;7.93;;;22.00;97.60;;;;;;4965037;29;20285;-73
2023/07/24 10:36:28;;;;;;;9.57;5.53;;;21.90;98.00;;;;;;4962848;29;20102;-72
2023/07/24 10:38:56;;;;;;;8.43;5.40;;;21.90;97.80;;;;;;4966301;28;20256;-74
2023/07/24 10:41:22;;;;;;;;;;;21.90;98.90;;;;;;4967149;29;20313;-72
2023/07/24 10:43:58;;;;;;;9.60;5.68;;;21.80;99.60;;;;;;4966425;28;19915;-71
2023/07/24 10:46:37;;;;;;;11.10;5.80;;;21.70;99.70;;;;;;4966409;28;20046;-70
2023/07/24 10:49:03;;;;;;;10.43;5.97;;;21.70;99.90;;;;;;4965552;28;20027;-70
2023/07/24 10:51:33;;;;;;;10.82;5.60;;;21.60;99.90;;;;;;4966040;29;20057;-70
2023/07/24 10:54:03;;;;;;;9.60;5.78;;;21.50;99.90;;;;;;4965339;29;20106;-71
2023/07/24 10:56:29;;;;;;;9.25;5.13;;;21.30;99.90;;;;;;4966141;29;20078;-72
2023/07/24 10:58:54;;;;;;;10.70;5.50;;;21.20;99.90;;;;;;4965871;29;20295;-73
2023/07/24 11:01:20;;;;;;;10.25;5.53;;;21.20;99.90;;;;;;4966133;29;20072;-72
2023/07/24 11:03:46;;;;;;;11.52;6.05;;;21.10;99.90;;;;;;4965126;29;20027;-72
2023/07/24 11:06:21;;;;;;;11.10;6.15;;;20.90;99.90;;;;;;4966044;28;20097;-73
2023/07/24 11:08:56;;;;;;;11.30;5.70;;;20.90;99.90;;;;;;4965886;28;20348;-73
2023/07/24 11:11:23;;;;;;;10.75;5.60;;;20.80;99.90;;;;;;4965834;28;20074;-73
2023/07/24 11:13:49;;;;;;;9.60;5.25;;;20.70;99.90;;;;;;4965547;28;20087;-72
2023/07/24 11:16:17;;;;;;;10.73;5.70;;;20.50;99.90;;;;;;4965465;29;20086;-71
2023/07/24 11:18:51;;;;;;;;;;;20.30;99.90;;;;;;4964870;29;20059;-72
2023/07/24 11:21:26;;;;;;;10.77;5.22;;;20.30;99.90;;;;;;4965335;28;19907;-73
2023/07/24 11:23:54;;;;;;;9.68;5.47;;;20.30;99.90;;;;;;4965437;29;20054;-72
2023/07/24 11:26:21;;;;;;;10.23;5.45;;;20.30;99.90;;;;;;4965353;28;20023;-71
2023/07/24 11:28:48;;;;;;;7.75;4.70;;;20.30;99.90;;;;;;4965339;28;20221;-72
2023/07/24 11:31:19;;;;;;;9.00;4.90;;;20.30;99.90;;;;;;4964341;28;20035;-73
2023/07/24 11:33:46;;;;;;;9.32;4.90;;;20.30;99.90;;;;;;4964935;28;20114;-71
2023/07/24 11:36:13;;;;;;;8.48;4.95;;;20.40;99.90;;;;;;4960511;29;20050;-72
2023/07/24 11:38:39;;;;;;;8.07;5.13;;;20.60;99.90;;;;;;4946113;29;20113;-73
2023/07/24 11:41:04;;;;;;;10.32;5.57;;;20.70;99.90;;;;;;4946090;29;20036;-72
2023/07/24 11:43:33;;;;;;;9.90;5.25;;;21.10;99.90;;;;;;4946212;29;20050;-72
2023/07/24 11:45:59;;;;;;;9.32;5.00;;;21.80;99.90;;;;;;4945854;29;20028;-72
2023/07/24 11:48:25;;;;;;;9.02;4.78;;;22.90;99.90;;;;;;4948570;29;20133;-71
2023/07/24 11:50:54;;;;;;;8.13;4.72;;;23.90;99.70;;;;;;4965056;29;20035;-71
2023/07/24 11:53:29;;;;;;;6.95;3.97;;;24.60;97.70;;;;;;4963833;29;20098;-72
2023/07/24 11:55:57;;;;;;;8.32;4.85;;;24.30;96.90;;;;;;4964234;29;20068;-71
2023/07/24 11:58:26;;;;;;;8.10;5.22;;;23.60;97.60;;;;;;4965301;28;20042;-72
2023/07/24 12:00:52;;;;;;;7.82;4.75;;;23.00;99.40;;;;;;4964782;28;20058;-72
2023/07/24 12:03:22;;;;;;;9.57;5.35;;;22.80;99.80;;;;;;4964481;28;20035;-72
2023/07/24 12:05:48;;;;;;;9.07;4.70;;;22.60;99.50;;;;;;4964913;28;20085;-71
2023/07/24 12:08:14;;;;;;;8.77;4.97;;;22.30;99.30;;;;;;4964577;28;20300;-72
2023/07/24 12:10:43;;;;;;;8.15;4.57;;;22.20;99.60;;;;;;4964589;29;20030;-72
2023/07/24 12:13:09;;;;;;;7.95;4.43;;;22.20;99.60;;;;;;4964422;28;20038;-72
2023/07/24 12:15:35;;;;;;;10.77;5.10;;;22.20;99.70;;;;;;4964303;29;20074;-74
2023/07/24 12:18:02;;;;;;;7.65;4.70;;;22.10;99.80;;;;;;4964159;29;20082;-72
2023/07/24 12:20:29;;;;;;;6.63;4.30;;;22.20;99.60;;;;;;4964970;28;20316;-71
2023/07/24 12:22:54;;;;;;;9.38;4.63;;;22.10;99.60;;;;;;4964423;28;20031;-71
2023/07/24 12:25:21;;;;;;;9.70;5.45;;;22.30;99.30;;;;;;4965072;29;20023;-73
2023/07/24 12:27:47;;;;;;;9.07;5.07;;;22.60;99.40;;;;;;4972060;28;20031;-72
2023/07/24 12:30:13;;;;;;;8.77;4.72;;;22.80;99.30;;;;;;4982148;28;20312;-71
2023/07/24 12:32:39;;;;;;;7.65;4.72;;;22.90;98.10;;;;;;4983953;28;20022;-72
2023/07/24 12:35:05;;;;;;;7.50;4.80;;;22.90;98.30;;;;;;4983602;28;20335;-71
2023/07/24 12:37:31;;;;;;;9.15;5.05;;;23.20;98.10;;;;;;4984175;28;20039;-72
2023/07/24 12:39:57;;;;;;;8.10;4.50;;;23.30;97.90;;;;;;4980372;28;20030;-72
2023/07/24 12:42:23;;;;;;;8.05;4.32;;;23.40;97.20;;;;;;4964988;29;20081;-72
2023/07/24 12:44:49;;;;;;;7.43;4.32;;;23.50;97.10;;;;;;4964461;29;20027;-72
2023/07/24 12:47:15;;;;;;;7.82;4.82;;;23.40;97.40;;;;;;4964379;29;20023;-71
2023/07/24 12:49:44;;;;;;;9.18;5.00;;;23.50;98.10;;;;;;4964035;29;20301;-72
2023/07/24 12:52:10;;;;;;;8.80;5.03;;;23.70;98.20;;;;;;4963981;29;20031;-72
2023/07/24 12:54:36;;;;;;;6.70;4.50;;;24.20;97.20;;;;;;4964100;28;20066;-71
2023/07/24 12:57:05;;;;;;;10.65;5.55;;;24.80;95.80;;;;;;4964324;29;20193;-72
2023/07/24 12:59:31;;;;;;;8.68;4.90;;;25.20;94.60;;;;;;4964605;29;20189;-72
2023/07/24 13:01:56;;;;;;;10.20;5.50;;;25.50;93.90;;;;;;4964269;28;20054;-72
2023/07/24 13:04:23;;;;;;;8.80;5.07;;;26.20;92.90;;;;;;4964629;29;20054;-70
2023/07/24 13:06:49;;;;;;;9.57;4.97;;;26.30;92.40;;;;;;4964321;28;20098;-71
2023/07/24 13:09:14;;;;;;;8.32;5.55;;;26.40;92.30;;;;;;4958416;28;20038;-69
2023/07/24 13:11:48;;;;;;;10.05;5.72;;;26.60;91.40;;;;;;4964166;29;20038;-70
2023/07/24 13:14:15;;;;;;;11.10;5.57;;;26.50;92.00;;;;;;4963813;28;20352;-72
2023/07/24 13:16:43;;;;;;;8.35;5.20;;;26.40;92.10;;;;;;4964105;28;20332;-71
2023/07/24 13:19:09;;;;;;;8.35;5.25;;;26.50;90.90;;;;;;4963757;29;20092;-71
2023/07/24 13:21:35;;;;;;;8.85;5.75;;;26.90;90.50;;;;;;4963886;29;20039;-71
2023/07/24 13:24:00;;;;;;;9.18;4.75;;;27.30;90.70;;;;;;4963876;29;20086;-73
2023/07/24 13:26:26;;;;;;;8.15;4.97;;;27.20;88.70;;;;;;4958639;28;20043;-71
2023/07/24 13:28:53;;;;;;;8.32;4.57;;;27.10;87.80;;;;;;4964348;28;20090;-72
2023/07/24 13:31:20;;;;;;;6.80;4.60;;;27.50;87.70;;;;;;4963407;29;20086;-72
2023/07/24 13:33:46;;;;;;;8.25;4.68;;;27.80;87.90;;;;;;4979330;28;20024;-72
2023/07/24 13:36:12;;;;;;;6.13;4.20;;;27.60;86.70;;;;;;4963367;28;20110;-73
2023/07/24 13:38:40;;;;;;;5.03;3.58;;;27.40;87.10;;;;;;4963084;29;20209;-72
2023/07/24 13:41:05;;;;;;;6.05;3.30;;;27.20;84.00;;;;;;4964055;28;20035;-71
2023/07/24 13:43:34;;;;;;;8.38;4.18;;;26.50;85.70;;;;;;4963787;28;20090;-71
2023/07/24 13:46:09;;;;;;;6.75;3.95;;;26.70;85.00;;;;;;4959780;28;20094;-72
2023/07/24 13:48:38;;;;;;;5.90;3.97;;;26.60;87.00;;;;;;4964222;29;20054;-71
2023/07/24 13:51:03;;;;;;;5.57;3.55;;;26.90;85.40;;;;;;4963450;28;20039;-71
2023/07/24 13:53:29;;;;;;;6.15;3.90;;;26.40;85.50;;;;;;4964856;28;20215;-71
2023/07/24 13:55:55;;;;;;;6.28;3.42;;;26.40;84.60;;;;;;4967217;29;20058;-70
2023/07/24 13:58:20;;;;;;;4.50;3.28;;;26.40;84.90;;;;;;4967298;29;20248;-71
2023/07/24 14:00:46;;;;;;;5.70;3.50;;;26.60;82.00;;;;;;4967281;29;20038;-70
2023/07/24 14:03:12;;;;;;;5.32;3.55;;;27.50;80.10;;;;;;4967181;29;20031;-70
2023/07/24 14:05:38;;;;;;;5.95;3.63;;;29.40;77.00;;;;;;4966981;28;20296;-71
2023/07/24 14:08:07;;;;;;;5.97;3.53;;;31.20;74.00;;;;;;4962381;29;20058;-71
2023/07/24 14:10:33;;;;;;;4.85;3.30;;;31.70;71.40;;;;;;4975781;28;20086;-71
2023/07/24 14:12:59;;;;;;;5.13;3.28;;;33.60;67.90;;;;;;4966960;29;20027;-72
2023/07/24 14:15:25;;;;;;;5.13;3.17;;;34.30;64.40;;;;;;4967074;28;20030;-72
2023/07/24 14:17:53;;;;;;;4.70;3.10;;;33.10;66.60;;;;;;4967139;29;20043;-73
2023/07/24 14:20:22;;;;;;;4.60;3.22;;;33.40;64.90;;;;;;4966732;29;20039;-72
2023/07/24 14:22:47;;;;;;;5.50;3.70;;;33.00;64.70;;;;;;4967143;28;20066;-73
2023/07/24 14:25:13;;;;;;;4.63;2.88;;;31.80;66.50;;;;;;4966612;29;20320;-72
2023/07/24 14:27:39;;;;;;;6.72;3.22;;;31.10;69.30;;;;;;4960474;28;20039;-72
2023/07/24 14:30:10;;;;;;;4.25;3.03;;;31.00;68.60;;;;;;4947514;28;20216;-71
2023/07/24 14:32:36;;;;;;;5.57;3.30;;;30.40;69.00;;;;;;4961890;29;20028;-71
2023/07/24 14:35:08;;;;;;;5.43;3.38;;;29.30;70.30;;;;;;4947010;29;20067;-72
2023/07/24 14:37:45;;;;;;;5.30;3.15;;;28.80;71.20;;;;;;4958855;29;20212;-72
2023/07/24 14:40:12;;;;;;;5.43;3.27;;;28.20;73.40;;;;;;4966723;28;20031;-72
2023/07/24 14:42:41;;;;;;;4.78;3.30;;;27.70;74.90;;;;;;4966545;28;20043;-71
2023/07/24 14:45:07;;;;;;;5.35;3.58;;;28.00;76.20;;;;;;4964822;29;20074;-71
2023/07/24 14:47:33;;;;;;;5.72;3.50;;;28.60;74.10;;;;;;4966391;28;20252;-72
2023/07/24 14:49:58;;;;;;;5.32;3.20;;;28.30;75.80;;;;;;4966144;29;20059;-73
2023/07/24 14:52:30;;;;;;;4.53;2.63;;;28.70;76.60;;;;;;4966040;28;20019;-71
2023/07/24 14:55:01;;;;;;;4.65;2.80;;;29.70;73.60;;;;;;4966291;28;20054;-75
2023/07/24 14:57:27;;;;;;;5.22;2.88;;;30.00;73.20;;;;;;4966221;29;20035;-70
2023/07/24 14:59:53;;;;;;;6.00;3.10;;;29.60;73.50;;;;;;4959455;29;20042;-72
2023/07/24 15:02:19;;;;;;;5.45;3.17;;;29.20;73.50;;;;;;4958985;29;20094;-73
2023/07/24 15:04:44;;;;;;;5.35;3.25;;;28.30;72.60;;;;;;4961212;28;20023;-73
2023/07/24 15:07:10;;;;;;;4.90;3.10;;;27.50;73.50;;;;;;4964673;29;20039;-73
2023/07/24 15:09:37;;;;;;;5.22;3.10;;;27.70;73.60;;;;;;4963797;29;20058;-73
2023/07/24 15:12:03;;;;;;;3.92;2.65;;;27.80;74.30;;;;;;4964410;28;20264;-74
2023/07/24 15:14:29;;;;;;;4.57;2.75;;;28.60;73.00;;;;;;4964431;28;20031;-73
2023/07/24 15:16:58;;;;;;;3.97;2.75;;;30.30;69.30;;;;;;4964781;29;20102;-72
2023/07/24 15:19:23;;;;;;;5.70;3.00;;;31.50;66.70;;;;;;4964538;29;20027;-72
2023/07/24 15:21:49;;;;;;;4.55;2.83;;;31.70;66.50;;;;;;4963710;29;20245;-73
2023/07/24 15:24:17;;;;;;;5.53;3.05;;;30.70;67.80;;;;;;4964313;29;20081;-74
2023/07/24 15:26:46;;;;;;;;;;;29.50;70.40;;;;;;4964548;28;20027;-73
2023/07/24 15:29:15;;;;;;;4.30;2.63;;;28.70;72.90;;;;;;4963681;29;20124;-72
2023/07/24 15:31:41;;;;;;;4.10;2.70;;;28.00;74.40;;;;;;4964823;28;20046;-73
2023/07/24 15:34:10;;;;;;;4.38;2.70;;;27.40;76.60;;;;;;4964419;29;20035;-73
2023/07/24 15:36:36;;;;;;;4.35;2.80;;;26.70;78.70;;;;;;4964687;29;20035;-73
2023/07/24 15:39:03;;;;;;;4.63;3.05;;;26.20;79.20;;;;;;4964490;29;20031;-73
2023/07/24 15:41:32;;;;;;;4.82;3.03;;;25.70;80.70;;;;;;4964606;29;20031;-73
2023/07/24 15:43:58;;;;;;;5.95;2.88;;;25.60;81.20;;;;;;4964134;29;20242;-72
2023/07/24 15:46:24;;;;;;;5.35;2.85;;;25.60;81.80;;;;;;4962446;29;20043;-73
2023/07/24 15:48:52;;;;;;;4.93;2.75;;;25.10;83.00;;;;;;4964330;29;20071;-74
2023/07/24 15:51:18;;;;;;;;;;;24.80;84.20;;;;;;4962758;29;20019;-73
2023/07/24 15:53:45;;;;;;;5.68;2.80;;;24.70;85.10;;;;;;4963553;28;19920;-73
2023/07/24 15:56:11;;;;;;;4.67;2.93;;;24.80;85.30;;;;;;4963851;28;20082;-74
2023/07/24 15:58:37;;;;;;;4.88;2.97;;;25.00;84.50;;;;;;4964301;29;20043;-74
2023/07/24 16:01:03;;;;;;;5.55;3.20;;;24.90;84.90;;;;;;4963889;29;20035;-74
2023/07/24 16:03:29;;;;;;;5.88;2.80;;;25.60;83.30;;;;;;4962881;29;20034;-73
2023/07/24 16:05:55;;;;;;;4.38;2.80;;;26.10;81.40;;;;;;4964118;29;20078;-74
2023/07/24 16:08:29;;;;;;;5.80;2.97;;;25.60;82.30;;;;;;4963499;29;20197;-73
2023/07/24 16:10:56;;;;;;;5.80;3.17;;;25.70;82.50;;;;;;4963064;29;20035;-75
2023/07/24 16:13:22;;;;;;;5.45;3.00;;;25.70;82.90;;;;;;4963386;29;20039;-74
2023/07/24 16:15:47;;;;;;;5.20;3.05;;;25.60;83.00;;;;;;4963461;28;20074;-74
2023/07/24 16:18:13;;;;;;;5.55;3.00;;;25.30;83.50;;;;;;4963805;29;20055;-74
2023/07/24 16:20:39;;;;;;;4.78;2.97;;;24.60;86.20;;;;;;4959633;29;20032;-73
2023/07/24 16:23:04;;;;;;;5.15;3.05;;;24.60;86.30;;;;;;4963620;29;20045;-73
2023/07/24 16:25:30;;;;;;;5.10;3.05;;;24.50;86.50;;;;;;4963323;29;20037;-73
2023/07/24 16:27:56;;;;;;;5.22;2.95;;;24.40;86.40;;;;;;4964255;29;20035;-73
2023/07/24 16:30:22;;;;;;;4.25;2.88;;;24.50;86.80;;;;;;4963152;29;20027;-74
2023/07/24 16:32:50;;;;;;;3.97;2.67;;;24.50;86.20;;;;;;4960052;28;20316;-72
2023/07/24 16:35:16;;;;;;;6.78;2.95;;;24.40;87.30;;;;;;4963637;29;20122;-71
2023/07/24 16:37:42;;;;;;;7.45;3.20;;;24.20;87.20;;;;;;4962426;29;20034;-73
2023/07/24 16:40:08;;;;;;;4.93;2.92;;;24.20;87.90;;;;;;4963210;28;20035;-73
2023/07/24 16:42:34;;;;;;;7.50;3.70;;;24.10;88.50;;;;;;4963517;28;20042;-74
2023/07/24 16:45:00;;;;;;;5.57;3.10;;;24.10;88.70;;;;;;4978571;28;20348;-71
2023/07/24 16:47:26;;;;;;;5.90;3.13;;;24.10;88.90;;;;;;4962698;29;20035;-72
2023/07/24 16:49:52;;;;;;;5.45;3.05;;;24.10;89.00;;;;;;4963522;29;20028;-72
2023/07/24 16:52:17;;;;;;;6.35;3.20;;;24.10;88.90;;;;;;4963065;28;20050;-71
2023/07/24 16:54:44;;;;;;;6.72;3.17;;;24.00;89.20;;;;;;4959206;29;20093;-73
2023/07/24 16:57:09;;;;;;;6.55;3.30;;;24.10;89.20;;;;;;4962363;29;20321;-71
2023/07/24 16:59:35;;;;;;;6.93;3.72;;;23.90;89.40;;;;;;4963733;29;20046;-75
2023/07/24 17:02:01;;;;;;;5.68;3.47;;;23.90;91.70;;;;;;4963358;29;20253;-71
2023/07/24 17:04:26;;;;;;;6.35;2.53;;;23.50;94.00;;;;;;4962762;29;20085;-74
2023/07/24 17:06:52;;;;;;;4.93;2.78;;;22.70;95.10;;;;;;4961884;29;20328;-73
2023/07/24 17:09:19;;;;;;;5.95;3.00;;;22.00;96.00;;;;;;4962449;29;20224;-73
2023/07/24 17:11:44;;;;;;;6.63;2.47;;;21.50;97.80;;;;;;4962908;28;20036;-72
2023/07/24 17:14:10;;;;;;;4.78;2.42;;;21.30;99.00;;;;;;4961023;28;20023;-70
2023/07/24 17:16:36;;;;;;;5.30;2.30;;;21.10;99.90;;;;;;4962540;28;20043;-73
2023/07/24 17:19:01;;;;;;;5.18;2.40;;;21.20;99.90;;;;;;4963233;28;20043;-71
2023/07/24 17:21:27;;;;;;;4.38;2.30;;;21.30;99.90;;;;;;4961832;29;20336;-71
2023/07/24 17:23:53;;;;;;;5.50;2.70;;;21.50;99.90;;;;;;4962722;29;20027;-72
2023/07/24 17:26:19;;;;;;;5.72;2.70;;;21.60;99.90;;;;;;4964868;28;20321;-72
2023/07/24 17:28:46;;;;;;;5.22;3.05;;;22.00;99.90;;;;;;4964939;28;20030;-73
2023/07/24 17:31:12;;;;;;;5.72;2.97;;;22.70;98.60;;;;;;4966313;28;20034;-72
2023/07/24 17:33:37;;;;;;;7.63;4.30;;;23.30;97.00;;;;;;4966975;28;20027;-71
2023/07/24 17:36:03;;;;;;;4.78;2.92;;;23.80;96.30;;;;;;4966482;28;20039;-75
2023/07/24 17:38:30;;;;;;;4.57;2.75;;;23.70;95.60;;;;;;4966272;29;20090;-74
2023/07/24 17:41:00;;;;;;;4.47;2.42;;;24.00;94.40;;;;;;4965938;29;20134;-74
2023/07/24 17:43:26;;;;;;;4.88;2.50;;;24.00;94.40;;;;;;4966317;28;20043;-73
2023/07/24 17:45:52;;;;;;;3.17;1.65;;;25.10;92.60;;;;;;4948774;29;20027;-74
2023/07/24 17:48:18;;;;;;;4.30;1.73;;;25.90;90.70;;;;;;4966922;29;20414;-75
2023/07/24 17:50:47;;;;;;;4.30;1.90;;;26.90;86.70;;;;;;4967477;29;20314;-74
2023/07/24 17:53:13;;;;;;;3.08;1.50;;;27.90;83.40;;;;;;4966849;29;20037;-74
2023/07/24 17:55:38;;;;;;;2.53;1.40;;;28.50;80.50;;;;;;4967501;29;20205;-73
2023/07/24 17:58:04;;;;;;;3.65;1.60;;;28.70;79.20;;;;;;4967352;29;20043;-74
2023/07/24 18:00:30;;;;;;;2.60;1.20;;;28.60;79.30;;;;;;4966864;28;20388;-75
2023/07/24 18:02:55;;;;;;;3.63;1.45;;;29.00;78.30;;;;;;4967292;29;20058;-76
2023/07/24 18:05:21;;;;;;;2.50;1.17;;;29.00;78.00;;;;;;4966854;29;20030;-74
2023/07/24 18:07:47;;;;;;;3.15;1.40;;;28.60;77.90;;;;;;4966467;28;20062;-73
2023/07/24 18:10:13;;;;;;;2.95;1.40;;;28.20;78.50;;;;;;4965777;28;20317;-75
2023/07/24 18:12:39;;;;;;;2.15;1.08;;;28.10;78.50;;;;;;4967335;29;20094;-72
2023/07/24 18:15:05;;;;;;;2.08;1.38;;;27.40;80.20;;;;;;4967391;28;20042;-74
2023/07/24 18:17:31;;;;;;;4.50;1.50;;;26.80;80.90;;;;;;4966925;28;20355;-74
2023/07/24 18:19:56;;;;;;;2.47;1.10;;;25.70;83.90;;;;;;4967014;29;20043;-73
2023/07/24 18:22:23;;;;;;;3.55;1.80;;;25.00;86.50;;;;;;4966676;29;20309;-73
2023/07/24 18:24:48;;;;;;;2.60;1.42;;;24.50;89.40;;;;;;4966877;29;20035;-73
2023/07/24 18:27:14;;;;;;;2.53;1.30;;;24.40;89.80;;;;;;4966850;29;20035;-73
2023/07/24 18:29:40;;;;;;;3.25;1.55;;;24.10;90.10;;;;;;4965941;29;20038;-74
2023/07/24 18:32:06;;;;;;;3.55;1.70;;;23.80;90.80;;;;;;4967151;29;20042;-74
2023/07/24 18:34:32;;;;;;;3.15;1.30;;;23.40;91.20;;;;;;4966341;28;20027;-75
2023/07/24 18:36:58;;;;;;;3.72;1.52;;;23.10;91.40;;;;;;4966512;29;20321;-73
2023/07/24 18:39:24;;;;;;;2.35;1.20;;;22.80;92.20;;;;;;4966390;28;20027;-73
2023/07/24 18:41:50;;;;;;;2.50;1.27;;;22.50;92.60;;;;;;4967153;29;20027;-73
2023/07/24 18:44:15;;;;;;;3.92;2.60;;;22.40;93.10;;;;;;4966328;28;20033;-73
2023/07/24 18:46:41;;;;;;;2.95;1.60;;;22.30;93.20;;;;;;4966883;28;20035;-73
2023/07/24 18:49:07;;;;;;;2.90;1.45;;;22.20;92.60;;;;;;4966641;29;20023;-73
2023/07/24 18:51:35;;;;;;;2.70;1.50;;;21.90;92.60;;;;;;4966297;29;20062;-72
2023/07/24 18:54:01;;;;;;;;;;;21.90;93.80;;;;;;4966619;29;20058;-73
2023/07/24 18:56:27;;;;;;;2.90;1.42;;;21.70;94.00;;;;;;4965911;29;20100;-73
2023/07/24 18:58:53;;;;;;;2.50;1.20;;;21.50;93.40;;;;;;4966426;29;20198;-74
2023/07/24 19:01:19;;;;;;;3.45;1.48;;;21.40;94.00;;;;;;4966106;28;20019;-73
2023/07/24 19:03:45;;;;;;;2.92;1.30;;;21.40;94.20;;;;;;4966200;28;20229;-74
2023/07/24 19:06:10;;;;;;;2.85;1.42;;;21.20;94.40;;;;;;4966090;29;20071;-75
2023/07/24 19:08:36;;;;;;;2.45;1.33;;;21.10;94.70;;;;;;4966102;28;20035;-75
2023/07/24 19:11:02;;;;;;;3.35;1.50;;;21.00;94.60;;;;;;4966113;29;20031;-73
2023/07/24 19:13:30;;;;;;;3.22;1.40;;;20.90;94.70;;;;;;4965558;29;20023;-73
2023/07/24 19:15:58;;;;;;;7.75;1.55;;;20.80;94.50;;;;;;4965985;28;20350;-81
2023/07/24 19:18:24;;;;;;;2.78;1.27;;;20.70;94.20;;;;;;4962980;28;20043;-73
2023/07/24 19:20:50;;;;;;;2.65;1.40;;;20.70;94.40;;;;;;4964755;29;20344;-72
2023/07/24 19:23:15;;;;;;;3.33;1.35;;;20.60;94.10;;;;;;4965811;29;20031;-72
2023/07/24 19:25:41;;;;;;;3.05;1.35;;;20.50;94.10;;;;;;4965107;29;20046;-72
2023/07/24 19:28:07;;;;;;;2.90;1.60;;;20.40;93.90;;;;;;4965576;29;20027;-72
2023/07/24 19:30:35;;;;;;;3.47;1.73;;;20.40;94.10;;;;;;4960725;29;20031;-72
2023/07/24 19:33:01;;;;;;;3.45;1.73;;;20.30;94.10;;;;;;4966036;28;20057;-74
2023/07/24 19:35:27;;;;;;;2.63;1.13;;;20.30;94.00;;;;;;4965214;28;20024;-72
2023/07/24 19:37:52;;;;;;;5.90;1.52;;;20.20;94.10;;;;;;4965820;28;20336;-74